createdAt,value
2018-09-01T00:01:23.945Z,96449.00
2018-09-01T00:03:54.031Z,96446.00
2018-09-01T00:06:24.181Z,96434.00
2018-09-01T00:08:54.329Z,96440.00
2018-09-01T00:11:24.468Z,96476.00
2018-09-01T00:13:54.565Z,96485.00
2018-09-01T00:16:24.725Z,96455.00
2018-09-01T00:18:54.845Z,96426.00
2018-09-01T00:21:25.126Z,96446.00
2018-09-01T00:23:55.223Z,96464.00
2018-09-01T00:26:25.300Z,96440.00
2018-09-01T00:28:55.404Z,96407.00
2018-09-01T00:31:25.521Z,96397.00
2018-09-01T00:33:55.666Z,96409.00
2018-09-01T00:36:25.793Z,96420.00
2018-09-01T00:39:00.906Z,96426.00
2018-09-01T00:41:31.876Z,96413.00
2018-09-01T00:44:02.058Z,96420.00
2018-09-01T00:46:32.831Z,96426.00
2018-09-01T00:49:02.925Z,96433.00
2018-09-01T00:51:33.032Z,96439.00
2018-09-01T00:54:03.112Z,96441.00
2018-09-01T00:56:33.264Z,96445.00
2018-09-01T00:59:03.368Z,96423.00
2018-09-01T01:01:33.532Z,96410.00
2018-09-01T01:04:03.630Z,96423.00
2018-09-01T01:06:33.721Z,96430.00
2018-09-01T01:09:03.904Z,96436.00
2018-09-01T01:11:34.012Z,96438.00
2018-09-01T01:14:04.200Z,96455.00
2018-09-01T01:16:34.347Z,96467.00
2018-09-01T01:19:04.504Z,96473.00
2018-09-01T01:21:34.764Z,96468.00
2018-09-01T01:24:04.841Z,96457.00
2018-09-01T01:26:34.932Z,96465.00
2018-09-01T01:29:05.058Z,96464.00
2018-09-01T01:31:35.146Z,96459.00
2018-09-01T01:34:05.272Z,96462.00
2018-09-01T01:36:35.344Z,96470.00
2018-09-01T01:39:06.673Z,96451.00
2018-09-01T01:41:36.748Z,96460.00
2018-09-01T01:44:07.472Z,96470.00
2018-09-01T01:46:37.544Z,96466.00
2018-09-01T01:49:07.648Z,96465.00
2018-09-01T01:51:37.737Z,96469.00
2018-09-01T01:54:08.048Z,96469.00
2018-09-01T01:56:38.176Z,96461.00
2018-09-01T01:59:08.310Z,96455.00
2018-09-01T02:01:38.413Z,96451.00
2018-09-01T02:04:08.513Z,96448.00
2018-09-01T02:06:38.661Z,96460.00
2018-09-01T02:09:08.820Z,96466.00
2018-09-01T02:11:38.924Z,96474.00
2018-09-01T02:14:09.005Z,96453.00
2018-09-01T02:16:39.092Z,96423.00
2018-09-01T02:19:09.176Z,96395.00
2018-09-01T02:21:39.341Z,96366.00
2018-09-01T02:24:09.476Z,96362.00
2018-09-01T02:26:39.689Z,96369.00
2018-09-01T02:29:09.817Z,96382.00
2018-09-01T02:31:39.924Z,96392.00
2018-09-01T02:34:10.025Z,96389.00
2018-09-01T02:36:40.111Z,96392.00
2018-09-01T02:39:10.193Z,96389.00
2018-09-01T02:41:40.295Z,96399.00
2018-09-01T02:44:10.382Z,96389.00
2018-09-01T02:46:40.477Z,96398.00
2018-09-01T02:49:10.600Z,96392.00
2018-09-01T02:51:40.697Z,96414.00
2018-09-01T02:54:10.832Z,96422.00
2018-09-01T02:56:40.900Z,96446.00
2018-09-01T02:59:11.060Z,96466.00
2018-09-01T03:01:41.214Z,96477.00
2018-09-01T03:04:11.316Z,96465.00
2018-09-01T03:06:57.868Z,96451.00
2018-09-01T03:09:28.029Z,96442.00
2018-09-01T03:11:59.108Z,96442.00
2018-09-01T03:14:29.214Z,96451.00
2018-09-01T03:16:59.313Z,96440.00
2018-09-01T03:19:29.434Z,96450.00
2018-09-01T03:21:59.515Z,96448.00
2018-09-01T03:24:29.616Z,96449.00
2018-09-01T03:26:59.688Z,96458.00
2018-09-01T03:29:29.757Z,96454.00
2018-09-01T03:31:59.876Z,96452.00
2018-09-01T03:34:29.970Z,96445.00
2018-09-01T03:37:00.048Z,96439.00
2018-09-01T03:39:30.256Z,96437.00
2018-09-01T03:42:00.327Z,96421.00
2018-09-01T03:44:30.403Z,96412.00
2018-09-01T03:47:00.468Z,96408.00
2018-09-01T03:49:30.593Z,96416.00
2018-09-01T03:52:00.713Z,96436.00
2018-09-01T03:54:30.773Z,96436.00
2018-09-01T03:57:00.888Z,96427.00
2018-09-01T03:59:30.960Z,96414.00
2018-09-01T04:02:01.046Z,96385.00
2018-09-01T04:04:31.123Z,96380.00
2018-09-01T04:07:01.204Z,96377.00
2018-09-01T04:09:31.284Z,96387.00
2018-09-01T04:12:01.353Z,96387.00
2018-09-01T04:14:31.396Z,96388.00
2018-09-01T04:17:01.524Z,96389.00
2018-09-01T04:19:31.609Z,96401.00
2018-09-01T04:22:01.748Z,96393.00
2018-09-01T04:24:31.813Z,96387.00
2018-09-01T04:27:01.960Z,96378.00
2018-09-01T04:29:32.033Z,96389.00
2018-09-01T04:32:02.220Z,96397.00
2018-09-01T04:34:32.291Z,96389.00
2018-09-01T04:37:02.364Z,96397.00
2018-09-01T04:39:32.439Z,96393.00
2018-09-01T04:42:02.500Z,96392.00
2018-09-01T04:44:32.572Z,96379.00
2018-09-01T04:47:02.759Z,96386.00
2018-09-01T04:49:32.800Z,96366.00
2018-09-01T04:52:02.885Z,96361.00
2018-09-01T04:54:32.956Z,96355.00
2018-09-01T04:57:03.040Z,96357.00
2018-09-01T04:59:33.127Z,96360.00
2018-09-01T05:02:03.217Z,96357.00
2018-09-01T05:04:33.316Z,96354.00
2018-09-01T05:07:03.440Z,96352.00
2018-09-01T05:09:33.528Z,96359.00
2018-09-01T05:12:03.616Z,96365.00
2018-09-01T05:14:33.697Z,96357.00
2018-09-01T05:17:03.824Z,96370.00
2018-09-01T05:19:33.934Z,96359.00
2018-09-01T05:22:04.280Z,96353.00
2018-09-01T05:24:34.360Z,96352.00
2018-09-01T05:27:04.524Z,96347.00
2018-09-01T05:29:34.608Z,96354.00
2018-09-01T05:32:04.760Z,96362.00
2018-09-01T05:34:34.833Z,96362.00
2018-09-01T05:37:05.181Z,96362.00
2018-09-01T05:39:35.257Z,96374.00
2018-09-01T05:42:05.320Z,96373.00
2018-09-01T05:44:35.423Z,96379.00
2018-09-01T05:47:05.721Z,96377.00
2018-09-01T05:49:35.812Z,96368.00
2018-09-01T05:52:05.917Z,96357.00
2018-09-01T05:54:36.052Z,96369.00
2018-09-01T05:57:06.279Z,96377.00
2018-09-01T05:59:36.349Z,96370.00
2018-09-01T06:02:06.461Z,96357.00
2018-09-01T06:04:36.536Z,96354.00
2018-09-01T06:07:06.732Z,96355.00
2018-09-01T06:09:36.796Z,96356.00
2018-09-01T06:12:06.925Z,96368.00
2018-09-01T06:14:36.980Z,96381.00
2018-09-01T06:17:07.653Z,96371.00
2018-09-01T06:19:37.732Z,96379.00
2018-09-01T06:22:07.848Z,96367.00
2018-09-01T06:24:37.929Z,96379.00
2018-09-01T06:27:12.112Z,96383.00
2018-09-01T06:29:42.219Z,96389.00
2018-09-01T06:32:12.348Z,96381.00
2018-09-01T06:34:42.436Z,96379.00
2018-09-01T06:37:12.520Z,96377.00
2018-09-01T06:39:42.585Z,96390.00
2018-09-01T06:42:12.673Z,96394.00
2018-09-01T06:44:42.805Z,96399.00
2018-09-01T06:47:12.912Z,96401.00
2018-09-01T06:49:42.992Z,96395.00
2018-09-01T06:52:13.081Z,96391.00
2018-09-01T06:54:43.148Z,96398.00
2018-09-01T06:57:13.259Z,96391.00
2018-09-01T06:59:43.373Z,96379.00
2018-09-01T07:02:13.469Z,96393.00
2018-09-01T07:04:43.541Z,96393.00
2018-09-01T07:07:13.640Z,96399.00
2018-09-01T07:09:43.728Z,96384.00
2018-09-01T07:12:13.828Z,96379.00
2018-09-01T07:14:43.932Z,96371.00
2018-09-01T07:17:13.992Z,96386.00
2018-09-01T07:19:44.132Z,96379.00
2018-09-01T07:22:14.224Z,96363.00
2018-09-01T07:24:44.332Z,96377.00
2018-09-01T07:27:14.433Z,96365.00
2018-09-01T07:29:44.533Z,96362.00
2018-09-01T07:32:14.637Z,96364.00
2018-09-01T07:34:44.756Z,96374.00
2018-09-01T07:37:14.932Z,96361.00
2018-09-01T07:39:45.001Z,96385.00
2018-09-01T07:42:15.110Z,96380.00
2018-09-01T07:44:45.238Z,96377.00
2018-09-01T07:47:15.336Z,96371.00
2018-09-01T07:49:45.460Z,96371.00
2018-09-01T07:52:15.524Z,96377.00
2018-09-01T07:54:45.678Z,96377.00
2018-09-01T07:57:15.703Z,96367.00
2018-09-01T07:59:45.764Z,96368.00
2018-09-01T08:02:15.829Z,96370.00
2018-09-01T08:04:45.922Z,96379.00
2018-09-01T08:07:16.029Z,96370.00
2018-09-01T08:09:46.085Z,96385.00
2018-09-01T08:12:16.157Z,96389.00
2018-09-01T08:14:46.265Z,96378.00
2018-09-01T08:17:16.396Z,96385.00
2018-09-01T08:19:46.496Z,96391.00
2018-09-01T08:22:16.573Z,96393.00
2018-09-01T08:24:46.657Z,96393.00
2018-09-01T08:27:16.748Z,96411.00
2018-09-01T08:29:46.835Z,96412.00
2018-09-01T08:32:16.920Z,96414.00
2018-09-01T08:34:47.008Z,96410.00
2018-09-01T08:37:17.100Z,96413.00
2018-09-01T08:39:47.206Z,96427.00
2018-09-01T08:42:17.281Z,96420.00
2018-09-01T08:44:47.381Z,96433.00
2018-09-01T08:47:17.444Z,96436.00
2018-09-01T08:49:47.518Z,96457.00
2018-09-01T08:52:17.588Z,96463.00
2018-09-01T08:54:47.682Z,96456.00
2018-09-01T08:57:17.777Z,96455.00
2018-09-01T08:59:47.836Z,96452.00
2018-09-01T09:02:17.907Z,96458.00
2018-09-01T09:04:47.989Z,96471.00
2018-09-01T09:07:18.036Z,96479.00
2018-09-01T09:09:48.180Z,96480.00
2018-09-01T09:12:18.310Z,96501.00
2018-09-01T09:14:48.409Z,96516.00
2018-09-01T09:17:18.548Z,96552.00
2018-09-01T09:19:48.632Z,96578.00
2018-09-01T09:22:18.761Z,96600.00
2018-09-01T09:24:48.860Z,96625.00
2018-09-01T09:27:18.960Z,96638.00
2018-09-01T09:29:49.052Z,96634.00
2018-09-01T09:32:19.112Z,96624.00
2018-09-01T09:34:49.331Z,96620.00
2018-09-01T09:37:19.413Z,96629.00
2018-09-01T09:39:49.517Z,96634.00
2018-09-01T09:42:19.596Z,96624.00
2018-09-01T09:44:49.692Z,96633.00
2018-09-01T09:47:19.764Z,96630.00
2018-09-01T09:49:49.957Z,96627.00
2018-09-01T09:52:20.137Z,96614.00
2018-09-01T09:54:50.260Z,96617.00
2018-09-01T09:57:20.328Z,96618.00
2018-09-01T09:59:50.425Z,96622.00
2018-09-01T10:02:20.541Z,96605.00
2018-09-01T10:04:50.641Z,96587.00
2018-09-01T10:07:20.764Z,96566.00
2018-09-01T10:09:50.832Z,96556.00
2018-09-01T10:12:20.944Z,96538.00
2018-09-01T10:14:51.021Z,96537.00
2018-09-01T10:17:21.108Z,96535.00
2018-09-01T10:19:51.211Z,96541.00
2018-09-01T10:22:21.385Z,96545.00
2018-09-01T10:24:51.492Z,96539.00
2018-09-01T10:27:21.568Z,96526.00
2018-09-01T10:29:51.661Z,96531.00
2018-09-01T10:32:21.761Z,96510.00
2018-09-01T10:34:51.871Z,96497.00
2018-09-01T10:37:21.950Z,96494.00
2018-09-01T10:39:52.047Z,96486.00
2018-09-01T10:42:22.146Z,96472.00
2018-09-01T10:44:52.248Z,96472.00
2018-09-01T10:47:22.397Z,96489.00
2018-09-01T10:49:52.504Z,96500.00
2018-09-01T10:52:22.620Z,96510.00
2018-09-01T10:54:52.712Z,96495.00
2018-09-01T10:57:22.846Z,96491.00
2018-09-01T10:59:52.985Z,96490.00
2018-09-01T11:02:23.065Z,96496.00
2018-09-01T11:04:53.184Z,96497.00
2018-09-01T11:07:23.356Z,96498.00
2018-09-01T11:09:53.499Z,96509.00
2018-09-01T11:12:23.575Z,96511.00
2018-09-01T11:14:53.676Z,96513.00
2018-09-01T11:17:23.768Z,96509.00
2018-09-01T11:19:53.884Z,96523.00
2018-09-01T11:22:24.024Z,96517.00
2018-09-01T11:24:54.100Z,96515.00
2018-09-01T11:27:24.188Z,96508.00
2018-09-01T11:29:54.232Z,96515.00
2018-09-01T11:32:24.361Z,96516.00
2018-09-01T11:34:54.429Z,96517.00
2018-09-01T11:37:24.484Z,96512.00
2018-09-01T11:39:54.541Z,96527.00
2018-09-01T11:42:24.711Z,96530.00
2018-09-01T11:44:54.708Z,96526.00
2018-09-01T11:47:24.787Z,96527.00
2018-09-01T11:49:54.872Z,96531.00
2018-09-01T11:52:25.224Z,96532.00
2018-09-01T11:54:55.273Z,96526.00
2018-09-01T11:57:25.352Z,96529.00
2018-09-01T11:59:55.412Z,96533.00
2018-09-01T12:02:25.489Z,96535.00
2018-09-01T12:04:55.605Z,96537.00
2018-09-01T12:07:25.692Z,96543.00
2018-09-01T12:09:55.781Z,96538.00
2018-09-01T12:12:25.864Z,96535.00
2018-09-01T12:14:55.954Z,96530.00
2018-09-01T12:17:26.087Z,96525.00
2018-09-01T12:19:56.150Z,96525.00
2018-09-01T12:22:26.343Z,96522.00
2018-09-01T12:24:56.352Z,96525.00
2018-09-01T12:27:26.436Z,96521.00
2018-09-01T12:29:56.533Z,96528.00
2018-09-01T12:32:26.657Z,96528.00
2018-09-01T12:34:56.761Z,96533.00
2018-09-01T12:37:26.844Z,96524.00
2018-09-01T12:39:56.964Z,96522.00
2018-09-01T12:42:27.064Z,96522.00
2018-09-01T12:44:57.130Z,96532.00
2018-09-01T12:47:27.207Z,96525.00
2018-09-01T12:49:57.296Z,96532.00
2018-09-01T12:52:27.398Z,96536.00
2018-09-01T12:54:57.501Z,96548.00
2018-09-01T12:57:27.557Z,96542.00
2018-09-01T12:59:58.520Z,96543.00
2018-09-01T13:02:28.656Z,96537.00
2018-09-01T13:04:58.720Z,96524.00
2018-09-01T13:07:28.800Z,96533.00
2018-09-01T13:09:58.906Z,96538.00
2018-09-01T13:12:28.992Z,96531.00
2018-09-01T13:14:59.061Z,96530.00
2018-09-01T13:17:29.164Z,96514.00
2018-09-01T13:19:59.248Z,96509.00
2018-09-01T13:22:29.337Z,96506.00
2018-09-01T13:24:59.417Z,96495.00
2018-09-01T13:27:29.487Z,96486.00
2018-09-01T13:29:59.566Z,96493.00
2018-09-01T13:32:29.649Z,96490.00
2018-09-01T13:34:59.786Z,96491.00
2018-09-01T13:37:29.872Z,96492.00
2018-09-01T13:39:59.991Z,96486.00
2018-09-01T13:42:30.049Z,96486.00
2018-09-01T13:45:00.140Z,96494.00
2018-09-01T13:47:30.239Z,96489.00
2018-09-01T13:50:00.320Z,96487.00
2018-09-01T13:52:30.397Z,96477.00
2018-09-01T13:55:00.472Z,96466.00
2018-09-01T13:57:30.671Z,96468.00
2018-09-01T14:00:00.777Z,96463.00
2018-09-01T14:02:30.868Z,96463.00
2018-09-01T14:05:00.937Z,96456.00
2018-09-01T14:07:31.027Z,96469.00
2018-09-01T14:10:01.092Z,96486.00
2018-09-01T14:12:31.271Z,96498.00
2018-09-01T14:15:01.363Z,96499.00
2018-09-01T14:17:31.421Z,96504.00
2018-09-01T14:20:01.504Z,96506.00
2018-09-01T14:22:31.580Z,96509.00
2018-09-01T14:25:01.664Z,96505.00
2018-09-01T14:27:31.752Z,96504.00
2018-09-01T14:30:01.824Z,96510.00
2018-09-01T14:32:31.898Z,96497.00
2018-09-01T14:35:02.002Z,96500.00
2018-09-01T14:37:32.311Z,96516.00
2018-09-01T14:40:02.423Z,96520.00
2018-09-01T14:42:32.539Z,96522.00
2018-09-01T14:45:02.650Z,96518.00
2018-09-01T14:47:32.842Z,96525.00
2018-09-01T14:50:02.885Z,96535.00
2018-09-01T14:52:32.968Z,96529.00
2018-09-01T14:55:03.036Z,96525.00
2018-09-01T14:57:33.172Z,96518.00
2018-09-01T15:00:03.292Z,96525.00
2018-09-01T15:02:33.393Z,96522.00
2018-09-01T15:05:03.505Z,96519.00
2018-09-01T15:07:33.754Z,96514.00
2018-09-01T15:10:03.888Z,96513.00
2018-09-01T15:12:33.977Z,96509.00
2018-09-01T15:15:04.104Z,96523.00
2018-09-01T15:17:34.224Z,96526.00
2018-09-01T15:20:04.661Z,96531.00
2018-09-01T15:22:34.732Z,96528.00
2018-09-01T15:25:04.870Z,96528.00
2018-09-01T15:27:34.966Z,96521.00
2018-09-01T15:30:05.184Z,96526.00
2018-09-01T15:32:35.277Z,96528.00
2018-09-01T15:35:05.716Z,96538.00
2018-09-01T15:37:35.800Z,96536.00
2018-09-01T15:40:05.997Z,96543.00
2018-09-01T15:42:36.064Z,96550.00
2018-09-01T15:45:06.348Z,96555.00
2018-09-01T15:47:36.491Z,96560.00
2018-09-01T15:50:06.724Z,96552.00
2018-09-01T15:52:36.797Z,96561.00
2018-09-01T15:55:07.849Z,96562.00
2018-09-01T15:57:37.902Z,96563.00
2018-09-01T16:00:08.263Z,96558.00
2018-09-01T16:02:38.420Z,96562.00
2018-09-01T16:05:08.501Z,96559.00
2018-09-01T16:07:38.600Z,96553.00
2018-09-01T16:10:08.704Z,96553.00
2018-09-01T16:12:38.876Z,96558.00
2018-09-01T16:15:08.993Z,96555.00
2018-09-01T16:17:39.068Z,96550.00
2018-09-01T16:20:09.221Z,96541.00
2018-09-01T16:22:39.284Z,96536.00
2018-09-01T16:25:09.405Z,96541.00
2018-09-01T16:27:39.549Z,96532.00
2018-09-01T16:30:09.673Z,96536.00
2018-09-01T16:32:39.767Z,96535.00
2018-09-01T16:35:09.848Z,96530.00
2018-09-01T16:37:39.928Z,96540.00
2018-09-01T16:40:10.020Z,96542.00
2018-09-01T16:42:40.100Z,96543.00
2018-09-01T16:45:10.345Z,96550.00
2018-09-01T16:47:40.442Z,96549.00
2018-09-01T16:50:10.544Z,96552.00
2018-09-01T16:52:40.665Z,96543.00
2018-09-01T16:55:10.752Z,96549.00
2018-09-01T16:57:40.836Z,96553.00
2018-09-01T17:00:10.941Z,96552.00
2018-09-01T17:02:41.008Z,96558.00
2018-09-01T17:05:11.172Z,96559.00
2018-09-01T17:07:41.276Z,96558.00
2018-09-01T17:10:11.470Z,96552.00
2018-09-01T17:12:41.600Z,96550.00
2018-09-01T17:15:11.799Z,96556.00
2018-09-01T17:17:41.850Z,96562.00
2018-09-01T17:20:11.940Z,96555.00
2018-09-01T17:22:42.032Z,96559.00
2018-09-01T17:25:12.116Z,96549.00
2018-09-01T17:27:42.231Z,96550.00
2018-09-01T17:30:12.308Z,96549.00
2018-09-01T17:32:42.395Z,96555.00
2018-09-01T17:35:12.500Z,96556.00
2018-09-01T17:37:42.608Z,96552.00
2018-09-01T17:40:12.716Z,96550.00
2018-09-01T17:42:42.783Z,96556.00
2018-09-01T17:45:12.884Z,96559.00
2018-09-01T17:47:42.976Z,96564.00
2018-09-01T17:50:13.144Z,96568.00
2018-09-01T17:52:43.281Z,96572.00
2018-09-01T17:55:13.425Z,96582.00
2018-09-01T17:57:43.509Z,96584.00
2018-09-01T18:00:13.588Z,96581.00
2018-09-01T18:02:43.664Z,96590.00
2018-09-01T18:05:13.757Z,96581.00
2018-09-01T18:07:43.816Z,96579.00
2018-09-01T18:10:13.963Z,96588.00
2018-09-01T18:12:44.085Z,96582.00
2018-09-01T18:15:14.197Z,96580.00
2018-09-01T18:17:44.334Z,96584.00
2018-09-01T18:20:14.412Z,96592.00
2018-09-01T18:22:44.523Z,96589.00
2018-09-01T18:25:14.617Z,96581.00
2018-09-01T18:27:44.708Z,96589.00
2018-09-01T18:30:14.796Z,96594.00
2018-09-01T18:32:44.884Z,96580.00
2018-09-01T18:35:15.024Z,96581.00
2018-09-01T18:37:45.109Z,96589.00
2018-09-01T18:40:15.215Z,96597.00
2018-09-01T18:42:45.344Z,96597.00
2018-09-01T18:45:15.444Z,96587.00
2018-09-01T18:47:45.537Z,96590.00
2018-09-01T18:50:15.635Z,96599.00
2018-09-01T18:52:45.754Z,96599.00
2018-09-01T18:55:15.843Z,96594.00
2018-09-01T18:57:45.928Z,96592.00
2018-09-01T19:00:16.011Z,96593.00
2018-09-01T19:02:46.413Z,96588.00
2018-09-01T19:05:16.535Z,96595.00
2018-09-01T19:07:46.698Z,96597.00
2018-09-01T19:10:16.824Z,96602.00
2018-09-01T19:12:47.163Z,96596.00
2018-09-01T19:15:17.284Z,96589.00
2018-09-01T19:17:47.485Z,96584.00
2018-09-01T19:20:17.705Z,96595.00
2018-09-01T19:22:48.056Z,96599.00
2018-09-01T19:25:18.201Z,96596.00
2018-09-01T19:27:48.277Z,96600.00
2018-09-01T19:30:18.523Z,96609.00
2018-09-01T19:32:48.707Z,96606.00
2018-09-01T19:35:18.770Z,96599.00
2018-09-01T19:37:48.921Z,96602.00
2018-09-01T19:40:19.039Z,96604.00
2018-09-01T19:42:49.250Z,96590.00
2018-09-01T19:45:19.688Z,96591.00
2018-09-01T19:47:49.926Z,96604.00
2018-09-01T19:50:20.134Z,96599.00
2018-09-01T19:52:50.292Z,96590.00
2018-09-01T19:55:20.412Z,96588.00
2018-09-01T19:57:50.538Z,96584.00
2018-09-01T20:00:20.632Z,96580.00
2018-09-01T20:02:51.059Z,96572.00
2018-09-01T20:05:21.182Z,96573.00
2018-09-01T20:07:51.277Z,96563.00
2018-09-01T20:10:21.376Z,96554.00
2018-09-01T20:12:51.485Z,96554.00
2018-09-01T20:15:21.606Z,96549.00
2018-09-01T20:17:51.684Z,96552.00
2018-09-01T20:20:21.825Z,96542.00
2018-09-01T20:22:51.900Z,96540.00
2018-09-01T20:25:22.057Z,96544.00
2018-09-01T20:27:52.109Z,96540.00
2018-09-01T20:30:22.204Z,96541.00
2018-09-01T20:32:52.348Z,96544.00
2018-09-01T20:35:27.588Z,96542.00
2018-09-01T20:37:57.707Z,96535.00
2018-09-01T20:40:27.756Z,96531.00
2018-09-01T20:42:57.864Z,96526.00
2018-09-01T20:45:27.961Z,96525.00
2018-09-01T20:47:58.033Z,96526.00
2018-09-01T20:50:28.164Z,96526.00
2018-09-01T20:52:58.249Z,96530.00
2018-09-01T20:55:28.324Z,96522.00
2018-09-01T20:57:58.416Z,96532.00
2018-09-01T21:00:28.500Z,96535.00
2018-09-01T21:02:58.604Z,96534.00
2018-09-01T21:05:28.839Z,96541.00
2018-09-01T21:07:58.997Z,96539.00
2018-09-01T21:10:29.081Z,96538.00
2018-09-01T21:12:59.187Z,96550.00
2018-09-01T21:15:29.287Z,96552.00
2018-09-01T21:17:59.381Z,96553.00
2018-09-01T21:20:29.472Z,96557.00
2018-09-01T21:22:59.536Z,96551.00
2018-09-01T21:25:29.660Z,96552.00
2018-09-01T21:27:59.723Z,96549.00
2018-09-01T21:30:29.809Z,96555.00
2018-09-01T21:32:59.869Z,96557.00
2018-09-01T21:35:30.017Z,96552.00
2018-09-01T21:38:00.156Z,96557.00
2018-09-01T21:40:30.257Z,96547.00
2018-09-01T21:43:00.329Z,96554.00
2018-09-01T21:45:30.429Z,96548.00
2018-09-01T21:48:00.536Z,96554.00
2018-09-01T21:50:30.664Z,96556.00
2018-09-01T21:53:00.740Z,96554.00
2018-09-01T21:55:30.820Z,96561.00
2018-09-01T21:58:00.932Z,96558.00
2018-09-01T22:00:31.156Z,96560.00
2018-09-01T22:03:01.253Z,96553.00
2018-09-01T22:05:31.366Z,96558.00
2018-09-01T22:08:01.452Z,96548.00
2018-09-01T22:10:31.520Z,96553.00
2018-09-01T22:13:01.625Z,96554.00
2018-09-01T22:15:31.684Z,96550.00
2018-09-01T22:18:01.801Z,96561.00
2018-09-01T22:20:31.888Z,96543.00
2018-09-01T22:23:02.044Z,96544.00
2018-09-01T22:25:32.141Z,96542.00
2018-09-01T22:28:02.245Z,96548.00
2018-09-01T22:30:32.524Z,96552.00
2018-09-01T22:33:02.606Z,96546.00
2018-09-01T22:35:32.794Z,96543.00
2018-09-01T22:38:02.896Z,96541.00
2018-09-01T22:40:33.012Z,96540.00
2018-09-01T22:43:03.113Z,96544.00
2018-09-01T22:45:33.238Z,96545.00
2018-09-01T22:48:03.303Z,96549.00
2018-09-01T22:50:33.397Z,96544.00
2018-09-01T22:53:03.519Z,96546.00
2018-09-01T22:55:33.604Z,96556.00
2018-09-01T22:58:03.700Z,96557.00
2018-09-01T23:00:33.842Z,96544.00
2018-09-01T23:03:03.984Z,96551.00
2018-09-01T23:05:34.156Z,96548.00
2018-09-01T23:08:04.249Z,96559.00
2018-09-01T23:10:34.432Z,96558.00
2018-09-01T23:13:04.644Z,96555.00
2018-09-01T23:15:34.768Z,96563.00
2018-09-01T23:18:04.852Z,96564.00
2018-09-01T23:20:34.941Z,96555.00
2018-09-01T23:23:05.096Z,96559.00
2018-09-01T23:25:35.208Z,96561.00
2018-09-01T23:28:05.317Z,96574.00
2018-09-01T23:30:35.468Z,96552.00
2018-09-01T23:33:05.600Z,96557.00
2018-09-01T23:35:35.688Z,96557.00
2018-09-01T23:38:05.916Z,96558.00
2018-09-01T23:40:36.040Z,96564.00
2018-09-01T23:43:06.133Z,96569.00
2018-09-01T23:45:36.238Z,96560.00
2018-09-01T23:48:06.321Z,96566.00
2018-09-01T23:50:37.271Z,96568.00
2018-09-01T23:53:07.361Z,96573.00
2018-09-01T23:55:37.468Z,96561.00
2018-09-01T23:58:07.652Z,96560.00
